KETH Airport Information

Runway Information
Runway 04 Length 1919 ft width 175 ft
Elevation 0 ft Threshold 0 ft Heading 60
Runway 22 Length 1919 ft Width 175 ft
Elevation 0 ft Threshold 0 ft Heading 240
Runway 16 Length 3300 ft width 75 ft
Elevation 1017 ft Threshold 0 ft Heading 164
Runway 34 Length 3300 ft Width 75 ft
Elevation 1022 ft Threshold 0 ft Heading 344
Airport Frequencies
Type AWOS Name AWOS 3 Frequency 32.6 MHZ
Type CNTR Name MINNEAPOLI Frequency 126.1 MHZ
Type CTAF Name CTAF Frequency 122.9 MHZ
Type FSS Name PRINCETON Frequency 122.25 MHZ
Airport Navaids
Airport Weather Information & NOTAM
ADDS - METARS form results

(0943 UTC 09 May 2021)
Data provider http://aviationweather.gov/metar/data/
 
METAR text: KETH 090933Z AUTO 29008KT 10SM CLR 04/01 A3007 RMK AO2
Conditions at: KETH (WHEATON NDB , MN, US) observed 0933 UTC 09 May 2021
Temperature: 4.0°C (39°F)
Dewpoint: 1.0°C (34°F) [RH = 81%]
Pressure (altimeter): 30.07 inches Hg (1018.4 mb)
Winds: from the WNW (290 degrees) at 9 MPH (8 knots; 4.1 m/s)
Visibility: 10 or more miles (16+ km)
Ceiling: at least 12,000 feet AGL
Clouds: sky clear below 12,000 feet AGL
Weather: automated observation with no human augmentation;
there may or may not be significant weather present at this time

METAR text: KETH 090913Z AUTO 28007KT 10SM CLR 04/01 A3006 RMK AO2
Conditions at: KETH (WHEATON NDB , MN, US) observed 0913 UTC 09 May 2021
Temperature: 4.0°C (39°F)
Dewpoint: 1.0°C (34°F) [RH = 81%]
Pressure (altimeter): 30.06 inches Hg (1018.0 mb)
Winds: from the W (280 degrees) at 8 MPH (7 knots; 3.6 m/s)
Visibility: 10 or more miles (16+ km)
Ceiling: at least 12,000 feet AGL
Clouds: sky clear below 12,000 feet AGL
Weather: automated observation with no human augmentation;
there may or may not be significant weather present at this time

METAR text: KETH 090853Z AUTO 27008KT 10SM CLR 04/01 A3006 RMK AO2
Conditions at: KETH (WHEATON NDB , MN, US) observed 0853 UTC 09 May 2021
Temperature: 4.0°C (39°F)
Dewpoint: 1.0°C (34°F) [RH = 81%]
Pressure (altimeter): 30.06 inches Hg (1018.0 mb)
Winds: from the W (270 degrees) at 9 MPH (8 knots; 4.1 m/s)
Visibility: 10 or more miles (16+ km)
Ceiling: at least 12,000 feet AGL
Clouds: sky clear below 12,000 feet AGL
Weather: automated observation with no human augmentation;
there may or may not be significant weather present at this time